createdAt,value
2023-01-25T00:00:01.884Z,5.10
2023-01-25T00:02:28.851Z,5.10
2023-01-25T00:04:55.749Z,5.10
2023-01-25T00:07:22.619Z,5.10
2023-01-25T00:09:49.293Z,5.10
2023-01-25T00:12:15.988Z,5.10
2023-01-25T00:14:42.637Z,5.20
2023-01-25T00:17:09.447Z,5.20
2023-01-25T00:19:36.161Z,5.10
2023-01-25T00:22:03.099Z,5.20
2023-01-25T00:24:29.896Z,5.10
2023-01-25T00:26:56.635Z,5.10
2023-01-25T00:29:23.427Z,5.10
2023-01-25T00:31:57.071Z,5.10
2023-01-25T00:34:26.951Z,5.10
2023-01-25T00:37:04.144Z,5.10
2023-01-25T00:39:30.925Z,5.10
2023-01-25T00:41:57.597Z,5.10
2023-01-25T00:44:24.361Z,5.10
2023-01-25T00:46:51.168Z,5.10
2023-01-25T00:49:28.079Z,5.10
2023-01-25T00:51:58.148Z,5.10
2023-01-25T00:54:25.216Z,5.10
2023-01-25T00:56:56.572Z,5.10
2023-01-25T00:59:24.345Z,5.10
2023-01-25T01:01:52.119Z,5.10
2023-01-25T01:04:19.791Z,5.10
2023-01-25T01:06:46.866Z,5.10
2023-01-25T01:09:18.258Z,5.10
2023-01-25T01:11:45.109Z,5.10
2023-01-25T01:14:12.751Z,5.10
2023-01-25T01:16:39.570Z,5.10
2023-01-25T01:19:06.667Z,5.10
2023-01-25T01:21:33.329Z,5.10
2023-01-25T01:24:00.237Z,5.10
2023-01-25T01:26:27.031Z,5.10
2023-01-25T01:28:53.826Z,5.10
2023-01-25T01:31:22.885Z,5.10
2023-01-25T01:33:55.143Z,5.10
2023-01-25T01:36:23.643Z,5.10
2023-01-25T01:38:50.599Z,5.10
2023-01-25T01:41:18.032Z,5.10
2023-01-25T01:43:45.120Z,5.10
2023-01-25T01:46:37.275Z,5.10
2023-01-25T01:49:23.985Z,5.10
2023-01-25T01:52:05.551Z,5.10
2023-01-25T01:54:38.285Z,5.10
2023-01-25T01:57:10.833Z,5.10
2023-01-25T02:00:08.615Z,5.10
2023-01-25T02:02:35.842Z,5.10
2023-01-25T02:05:07.131Z,5.10
2023-01-25T02:07:36.722Z,5.10
2023-01-25T02:10:12.284Z,5.10
2023-01-25T02:12:39.461Z,5.10
2023-01-25T02:15:07.277Z,5.10
2023-01-25T02:17:37.127Z,5.10
2023-01-25T02:20:18.235Z,5.10
2023-01-25T02:23:07.755Z,5.10
2023-01-25T02:25:34.815Z,5.10
2023-01-25T02:28:09.263Z,5.10
2023-01-25T02:30:36.213Z,5.10
2023-01-25T02:33:02.982Z,5.10
2023-01-25T02:35:48.234Z,5.10
2023-01-25T02:38:17.551Z,5.10
2023-01-25T02:41:02.237Z,5.10
2023-01-25T02:43:32.596Z,5.10
2023-01-25T02:46:11.975Z,5.00
2023-01-25T02:48:38.887Z,5.10
2023-01-25T02:51:09.955Z,5.00
2023-01-25T02:53:36.827Z,4.90
2023-01-25T02:56:03.802Z,5.10
2023-01-25T02:58:30.483Z,5.00
2023-01-25T03:00:58.859Z,5.10
2023-01-25T03:03:25.564Z,5.10
2023-01-25T03:05:52.308Z,5.10
2023-01-25T03:08:19.033Z,5.10
2023-01-25T03:10:45.720Z,5.10
2023-01-25T03:13:12.583Z,5.10
2023-01-25T03:15:39.321Z,5.10
2023-01-25T03:18:06.052Z,5.10
2023-01-25T03:20:33.330Z,5.10
2023-01-25T03:23:00.009Z,5.10
2023-01-25T03:25:27.215Z,5.00
2023-01-25T03:27:54.273Z,5.10
2023-01-25T03:30:21.030Z,5.10
2023-01-25T03:32:47.752Z,5.00
2023-01-25T03:35:14.512Z,5.10
2023-01-25T03:37:41.294Z,5.10
2023-01-25T03:40:09.165Z,5.10
2023-01-25T03:42:36.049Z,5.10
2023-01-25T03:45:02.833Z,5.00
2023-01-25T03:47:29.526Z,5.00
2023-01-25T03:49:56.297Z,5.00
2023-01-25T03:52:24.578Z,5.00
2023-01-25T03:54:51.319Z,5.10
2023-01-25T03:57:18.053Z,5.00
2023-01-25T03:59:44.872Z,5.00
2023-01-25T04:02:12.817Z,5.00
2023-01-25T04:04:39.713Z,5.00
2023-01-25T04:07:06.500Z,5.10
2023-01-25T04:09:33.277Z,5.00
2023-01-25T04:12:00.025Z,5.00
2023-01-25T04:14:43.267Z,5.00
2023-01-25T04:17:10.987Z,5.00
2023-01-25T04:19:37.807Z,5.10
2023-01-25T04:22:04.617Z,5.00
2023-01-25T04:24:31.421Z,5.00
2023-01-25T04:26:58.136Z,5.00
2023-01-25T04:29:35.475Z,5.00
2023-01-25T04:32:06.769Z,5.00
2023-01-25T04:34:33.542Z,5.00
2023-01-25T04:37:00.291Z,5.00
2023-01-25T04:39:27.517Z,5.00
2023-01-25T04:41:54.229Z,5.00
2023-01-25T04:44:20.951Z,5.00
2023-01-25T04:46:48.786Z,5.00
2023-01-25T04:49:15.550Z,5.00
2023-01-25T04:51:42.314Z,5.00
2023-01-25T04:54:09.038Z,5.00
2023-01-25T04:56:35.765Z,5.00
2023-01-25T04:59:02.520Z,5.00
2023-01-25T05:01:29.501Z,5.10
2023-01-25T05:03:56.187Z,5.00
2023-01-25T05:06:23.056Z,5.00
2023-01-25T05:08:49.792Z,5.00
2023-01-25T05:11:16.507Z,5.00
2023-01-25T05:13:43.236Z,5.00
2023-01-25T05:16:09.951Z,5.00
2023-01-25T05:18:47.806Z,5.00
2023-01-25T05:21:33.862Z,5.00
2023-01-25T05:24:00.698Z,5.00
2023-01-25T05:26:46.192Z,5.00
2023-01-25T05:29:13.000Z,5.00
2023-01-25T05:31:39.740Z,5.10
2023-01-25T05:34:06.608Z,5.00
2023-01-25T05:36:33.359Z,5.00
2023-01-25T05:39:00.145Z,5.00
2023-01-25T05:41:26.854Z,5.00
2023-01-25T05:43:53.572Z,5.00
2023-01-25T05:46:20.381Z,5.00
2023-01-25T05:48:48.243Z,5.00
2023-01-25T05:51:15.096Z,5.00
2023-01-25T05:53:41.897Z,5.00
2023-01-25T05:56:10.640Z,5.00
2023-01-25T05:58:38.162Z,5.00
2023-01-25T06:01:07.077Z,5.00
2023-01-25T06:03:34.643Z,5.00
2023-01-25T06:06:03.039Z,5.00
2023-01-25T06:08:30.999Z,5.00
2023-01-25T06:10:58.303Z,5.00
2023-01-25T06:13:25.465Z,5.00
2023-01-25T06:15:53.661Z,5.00
2023-01-25T06:18:20.754Z,4.90
2023-01-25T06:20:48.192Z,5.00
2023-01-25T06:23:14.944Z,5.00
2023-01-25T06:25:41.753Z,4.90
2023-01-25T06:28:08.814Z,5.00
2023-01-25T06:30:35.621Z,5.00
2023-01-25T06:33:02.647Z,5.00
2023-01-25T06:35:32.347Z,5.00
2023-01-25T06:37:59.939Z,5.00
2023-01-25T06:40:28.066Z,5.00
2023-01-25T06:42:55.367Z,5.00
2023-01-25T06:45:22.128Z,5.00
2023-01-25T06:47:49.458Z,5.00
2023-01-25T06:50:16.307Z,5.00
2023-01-25T06:52:42.999Z,5.00
2023-01-25T06:55:13.797Z,5.00
2023-01-25T06:57:40.598Z,5.00
2023-01-25T07:00:08.116Z,5.00
2023-01-25T07:02:36.467Z,5.00
2023-01-25T07:05:03.585Z,5.00
2023-01-25T07:07:30.646Z,5.00
2023-01-25T07:09:58.947Z,5.00
2023-01-25T07:12:25.980Z,5.00
2023-01-25T07:14:52.743Z,5.00
2023-01-25T07:17:19.490Z,5.00
2023-01-25T07:19:46.564Z,5.00
2023-01-25T07:22:13.456Z,5.00
2023-01-25T07:24:40.314Z,5.00
2023-01-25T07:27:07.001Z,5.00
2023-01-25T07:29:33.820Z,5.00
2023-01-25T07:32:00.827Z,5.00
2023-01-25T07:34:28.961Z,5.00
2023-01-25T07:36:55.661Z,5.00
2023-01-25T07:39:22.517Z,5.00
2023-01-25T07:41:49.292Z,5.00
2023-01-25T07:44:16.171Z,5.00
2023-01-25T07:46:42.913Z,5.00
2023-01-25T07:49:09.689Z,5.00
2023-01-25T07:51:36.640Z,5.00
2023-01-25T07:54:04.910Z,5.00
2023-01-25T07:56:40.793Z,5.00
2023-01-25T07:59:08.412Z,5.00
2023-01-25T08:01:36.889Z,5.00
2023-01-25T08:04:04.833Z,5.00
2023-01-25T08:06:39.112Z,5.10
2023-01-25T08:09:19.819Z,5.10
2023-01-25T08:11:47.390Z,5.10
2023-01-25T08:14:14.204Z,5.00
2023-01-25T08:16:41.373Z,5.10
2023-01-25T08:19:10.605Z,5.10
2023-01-25T08:21:37.964Z,5.10
2023-01-25T08:24:06.862Z,5.10
2023-01-25T08:26:35.325Z,5.00
2023-01-25T08:29:02.850Z,5.00
2023-01-25T08:31:32.064Z,5.00
2023-01-25T08:33:59.826Z,5.00
2023-01-25T08:36:28.258Z,5.00
2023-01-25T08:39:04.330Z,5.00
2023-01-25T08:41:32.585Z,5.00
2023-01-25T08:43:59.424Z,5.00
2023-01-25T08:46:30.328Z,5.00
2023-01-25T08:49:00.370Z,5.00
2023-01-25T08:51:28.035Z,5.10
2023-01-25T08:53:54.898Z,5.00
2023-01-25T08:56:22.212Z,5.00
2023-01-25T08:58:50.314Z,5.00
2023-01-25T09:01:19.631Z,5.00
2023-01-25T09:03:50.150Z,5.00
2023-01-25T09:06:18.385Z,5.00
2023-01-25T09:08:45.235Z,5.00
2023-01-25T09:11:20.626Z,5.00
2023-01-25T09:13:51.425Z,5.00
2023-01-25T09:16:28.158Z,5.00
2023-01-25T09:18:57.304Z,5.00
2023-01-25T09:21:24.617Z,5.00
2023-01-25T09:24:05.629Z,5.00
2023-01-25T09:26:35.700Z,5.00
2023-01-25T09:29:04.657Z,5.00
2023-01-25T09:31:31.655Z,5.20
2023-01-25T09:33:58.591Z,5.10
2023-01-25T09:36:25.977Z,5.10
2023-01-25T09:38:53.080Z,5.10
2023-01-25T09:41:37.672Z,5.10
2023-01-25T09:44:32.576Z,5.10
2023-01-25T09:47:04.717Z,5.10
2023-01-25T09:49:57.014Z,5.10
2023-01-25T09:53:01.718Z,5.10
2023-01-25T09:55:30.697Z,5.10
2023-01-25T09:58:01.374Z,5.10
2023-01-25T10:00:38.381Z,5.10
2023-01-25T10:03:20.755Z,5.10
2023-01-25T10:05:51.407Z,5.10
2023-01-25T10:08:32.233Z,5.10
2023-01-25T10:11:14.202Z,5.10
2023-01-25T10:13:41.049Z,5.10
2023-01-25T10:16:25.664Z,5.10
2023-01-25T10:19:07.556Z,5.10
2023-01-25T10:21:43.551Z,5.10
2023-01-25T10:24:52.618Z,5.20
2023-01-25T10:27:34.250Z,5.20
2023-01-25T10:30:20.821Z,5.20
2023-01-25T10:32:55.853Z,5.20
2023-01-25T10:35:35.526Z,5.20
2023-01-25T10:38:15.881Z,5.20
2023-01-25T10:40:48.613Z,5.20
2023-01-25T10:43:22.655Z,5.20
2023-01-25T10:45:50.482Z,5.20
2023-01-25T10:48:36.499Z,5.20
2023-01-25T10:51:03.425Z,5.20
2023-01-25T10:53:34.890Z,5.30
2023-01-25T10:56:10.737Z,5.30
2023-01-25T10:58:40.000Z,5.30
2023-01-25T11:01:10.809Z,5.20
2023-01-25T11:03:44.746Z,5.30
2023-01-25T11:06:11.944Z,5.30
2023-01-25T11:08:43.143Z,5.20
2023-01-25T11:11:32.674Z,5.20
2023-01-25T11:13:59.564Z,5.20
2023-01-25T11:16:31.225Z,5.20
2023-01-25T11:18:59.673Z,5.20
2023-01-25T11:21:32.130Z,5.20
2023-01-25T11:24:09.406Z,5.20
2023-01-25T11:26:40.755Z,5.30
2023-01-25T11:29:07.610Z,5.30
2023-01-25T11:31:34.903Z,5.30
2023-01-25T11:34:01.681Z,5.30
2023-01-25T11:36:42.346Z,5.30
2023-01-25T11:39:36.913Z,5.30
2023-01-25T11:42:35.969Z,5.20
2023-01-25T11:45:19.671Z,5.30
2023-01-25T11:48:11.255Z,5.30
2023-01-25T11:50:59.645Z,5.30
2023-01-25T11:53:42.941Z,5.30
2023-01-25T11:56:30.737Z,5.30
2023-01-25T11:59:16.281Z,5.30
2023-01-25T12:02:07.117Z,5.30
2023-01-25T12:04:52.246Z,5.20
2023-01-25T12:07:59.063Z,5.20
2023-01-25T12:10:58.045Z,5.20
2023-01-25T12:13:41.237Z,5.30
2023-01-25T12:16:22.816Z,5.20
2023-01-25T12:19:27.027Z,5.20
2023-01-25T12:22:11.674Z,5.20
2023-01-25T12:25:12.562Z,5.20
2023-01-25T12:27:51.333Z,5.20
2023-01-25T12:30:27.176Z,5.20
2023-01-25T12:33:13.897Z,5.10
2023-01-25T12:36:19.029Z,5.10
2023-01-25T12:39:17.303Z,5.10
2023-01-25T12:42:06.578Z,5.10
2023-01-25T12:44:55.217Z,5.10
2023-01-25T12:47:36.238Z,5.10
2023-01-25T12:50:30.626Z,5.10
2023-01-25T12:53:19.303Z,5.10
2023-01-25T12:55:47.348Z,5.10
2023-01-25T12:58:37.008Z,5.10
2023-01-25T13:01:28.091Z,5.10
2023-01-25T13:04:21.716Z,5.10
2023-01-25T13:07:22.052Z,5.00
2023-01-25T13:10:03.506Z,5.20
2023-01-25T13:12:49.790Z,5.20
2023-01-25T13:15:35.647Z,5.20
2023-01-25T13:18:02.363Z,5.10
2023-01-25T13:20:41.200Z,5.10
2023-01-25T13:23:26.663Z,5.10
2023-01-25T13:26:13.373Z,5.10
2023-01-25T13:28:43.067Z,5.20
2023-01-25T13:31:10.090Z,5.10
2023-01-25T13:33:37.231Z,5.10
2023-01-25T13:36:43.028Z,5.10
2023-01-25T13:39:24.891Z,5.10
2023-01-25T13:42:04.458Z,5.10
2023-01-25T13:44:34.309Z,5.10
2023-01-25T13:47:07.741Z,5.10
2023-01-25T13:49:42.841Z,5.10
2023-01-25T13:52:17.007Z,5.10
2023-01-25T13:54:45.367Z,5.10
2023-01-25T13:57:21.036Z,5.10
2023-01-25T13:59:50.684Z,5.00
2023-01-25T14:02:24.150Z,5.10
2023-01-25T14:04:52.464Z,5.10
2023-01-25T14:07:24.613Z,5.10
2023-01-25T14:09:52.566Z,5.00
2023-01-25T14:12:37.786Z,5.00
2023-01-25T14:15:25.616Z,5.00
2023-01-25T14:18:12.590Z,5.00
2023-01-25T14:20:40.081Z,5.00
2023-01-25T14:23:23.235Z,5.00
2023-01-25T14:25:50.992Z,5.00
2023-01-25T14:28:18.663Z,5.00
2023-01-25T14:30:54.966Z,5.00
2023-01-25T14:33:32.428Z,5.00
2023-01-25T14:36:31.303Z,5.00
2023-01-25T14:38:58.131Z,5.00
2023-01-25T14:41:33.433Z,5.00
2023-01-25T14:44:06.321Z,5.00
2023-01-25T14:46:35.025Z,5.00
2023-01-25T14:49:13.460Z,5.00
2023-01-25T14:51:47.794Z,5.00
2023-01-25T14:54:19.901Z,5.00
2023-01-25T14:56:50.104Z,5.10
2023-01-25T14:59:39.465Z,5.10
2023-01-25T15:02:18.390Z,5.10
2023-01-25T15:05:15.059Z,5.10
2023-01-25T15:08:15.647Z,5.10
2023-01-25T15:10:56.724Z,5.00
2023-01-25T15:13:26.475Z,5.00
2023-01-25T15:15:59.872Z,4.90
2023-01-25T15:18:49.362Z,4.90
2023-01-25T15:21:24.785Z,4.90
2023-01-25T15:23:53.022Z,4.90
2023-01-25T15:26:28.421Z,4.90
2023-01-25T15:29:16.874Z,4.90
2023-01-25T15:31:43.823Z,4.90
2023-01-25T15:34:32.499Z,4.90
2023-01-25T15:36:59.359Z,4.90
2023-01-25T15:39:27.396Z,4.90
2023-01-25T15:41:54.121Z,4.80
2023-01-25T15:44:20.889Z,4.80
2023-01-25T15:46:51.444Z,4.80
2023-01-25T15:49:24.909Z,4.80
2023-01-25T15:51:51.739Z,4.70
2023-01-25T15:54:18.538Z,4.80
2023-01-25T15:56:52.348Z,4.70
2023-01-25T15:59:19.326Z,4.70
2023-01-25T16:01:46.155Z,4.70
2023-01-25T16:04:16.059Z,4.80
2023-01-25T16:06:45.697Z,4.80
2023-01-25T16:09:28.464Z,4.80
2023-01-25T16:11:57.830Z,4.70
2023-01-25T16:14:29.186Z,4.80
2023-01-25T16:16:59.293Z,4.80
2023-01-25T16:19:26.233Z,4.80
2023-01-25T16:21:53.101Z,4.80
2023-01-25T16:24:20.022Z,4.80
2023-01-25T16:26:57.980Z,4.80
2023-01-25T16:29:25.285Z,4.80
2023-01-25T16:31:52.830Z,4.70
2023-01-25T16:34:21.051Z,4.70
2023-01-25T16:36:50.677Z,4.70
2023-01-25T16:39:20.153Z,4.70
2023-01-25T16:41:47.974Z,4.60
2023-01-25T16:44:14.789Z,4.60
2023-01-25T16:46:41.592Z,4.70
2023-01-25T16:49:10.777Z,4.60
2023-01-25T16:51:38.037Z,4.60
2023-01-25T16:54:04.869Z,4.70
2023-01-25T16:56:33.559Z,4.70
2023-01-25T16:59:05.676Z,4.60
2023-01-25T17:01:32.851Z,4.70
2023-01-25T17:03:59.732Z,4.70
2023-01-25T17:06:29.208Z,4.70
2023-01-25T17:08:58.877Z,4.70
2023-01-25T17:11:25.976Z,4.70
2023-01-25T17:13:54.844Z,4.70
2023-01-25T17:16:23.863Z,4.70
2023-01-25T17:19:02.737Z,4.70
2023-01-25T17:21:30.453Z,4.70
2023-01-25T17:23:58.941Z,4.70
2023-01-25T17:26:26.403Z,4.70
2023-01-25T17:28:55.669Z,4.70
2023-01-25T17:31:28.945Z,4.70
2023-01-25T17:33:56.713Z,4.70
2023-01-25T17:36:23.760Z,4.70
2023-01-25T17:38:50.666Z,4.70
2023-01-25T17:41:17.729Z,4.70
2023-01-25T17:43:44.533Z,4.70
2023-01-25T17:46:12.522Z,4.70
2023-01-25T17:48:39.981Z,4.70
2023-01-25T17:51:06.997Z,4.70
2023-01-25T17:53:33.864Z,4.70
2023-01-25T17:56:03.299Z,4.70
2023-01-25T17:58:31.176Z,4.70
2023-01-25T18:01:12.534Z,4.70
2023-01-25T18:03:40.753Z,4.70
2023-01-25T18:06:10.463Z,4.70
2023-01-25T18:08:42.219Z,4.70
2023-01-25T18:11:10.610Z,4.70
2023-01-25T18:13:41.942Z,4.70
2023-01-25T18:16:09.844Z,4.70
2023-01-25T18:18:38.223Z,4.70
2023-01-25T18:21:07.752Z,4.70
2023-01-25T18:23:34.823Z,4.70
2023-01-25T18:26:02.069Z,4.70
2023-01-25T18:28:28.950Z,4.70
2023-01-25T18:31:02.365Z,4.70
2023-01-25T18:33:29.397Z,4.70
2023-01-25T18:36:00.818Z,4.70
2023-01-25T18:38:29.762Z,4.70
2023-01-25T18:40:57.992Z,4.70
2023-01-25T18:43:25.390Z,4.80
2023-01-25T18:45:59.561Z,4.70
2023-01-25T18:48:30.874Z,4.70
2023-01-25T18:51:05.713Z,4.80
2023-01-25T18:53:34.206Z,4.70
2023-01-25T18:56:03.514Z,4.70
2023-01-25T18:58:32.307Z,4.80
2023-01-25T19:01:07.573Z,4.80
2023-01-25T19:03:34.445Z,4.80
2023-01-25T19:06:01.342Z,4.80
2023-01-25T19:08:28.978Z,4.80
2023-01-25T19:11:03.516Z,4.80
2023-01-25T19:13:33.801Z,4.80
2023-01-25T19:16:01.519Z,4.80
2023-01-25T19:18:33.263Z,4.80
2023-01-25T19:21:00.668Z,4.80
2023-01-25T19:23:33.297Z,4.80
2023-01-25T19:26:00.105Z,4.80
2023-01-25T19:28:26.865Z,4.80
2023-01-25T19:30:53.766Z,4.80
2023-01-25T19:33:20.951Z,4.80
2023-01-25T19:35:48.275Z,4.80
2023-01-25T19:38:15.010Z,4.80
2023-01-25T19:40:44.419Z,4.80
2023-01-25T19:43:11.272Z,4.90
2023-01-25T19:45:37.966Z,4.80
2023-01-25T19:48:06.610Z,4.80
2023-01-25T19:50:33.419Z,4.80
2023-01-25T19:53:01.301Z,4.80
2023-01-25T19:55:28.076Z,4.80
2023-01-25T19:57:55.135Z,4.80
2023-01-25T20:00:23.791Z,4.80
2023-01-25T20:02:52.076Z,4.80
2023-01-25T20:05:18.962Z,4.80
2023-01-25T20:07:45.701Z,4.80
2023-01-25T20:10:12.809Z,4.80
2023-01-25T20:12:39.524Z,4.80
2023-01-25T20:15:06.960Z,4.80
2023-01-25T20:17:33.862Z,4.80
2023-01-25T20:20:00.640Z,4.70
2023-01-25T20:22:28.437Z,4.70
2023-01-25T20:24:55.255Z,4.80
2023-01-25T20:27:22.080Z,4.80
2023-01-25T20:29:49.176Z,4.80
2023-01-25T20:32:31.567Z,4.80
2023-01-25T20:35:03.379Z,4.80
2023-01-25T20:37:30.150Z,4.80
2023-01-25T20:39:56.894Z,4.80
2023-01-25T20:42:23.730Z,4.80
2023-01-25T20:44:50.470Z,4.80
2023-01-25T20:47:17.247Z,4.80
2023-01-25T20:49:44.509Z,4.80
2023-01-25T20:52:13.844Z,4.80
2023-01-25T20:54:42.046Z,4.80
2023-01-25T20:57:09.030Z,4.90
2023-01-25T20:59:35.768Z,4.90
2023-01-25T21:02:02.475Z,4.90
2023-01-25T21:04:29.319Z,4.90
2023-01-25T21:06:56.107Z,4.80
2023-01-25T21:09:23.276Z,4.80
2023-01-25T21:11:50.026Z,4.80
2023-01-25T21:14:16.748Z,4.80
2023-01-25T21:16:43.447Z,4.70
2023-01-25T21:19:10.859Z,4.70
2023-01-25T21:21:38.567Z,4.70
2023-01-25T21:24:06.441Z,4.70
2023-01-25T21:26:35.248Z,4.70
2023-01-25T21:29:02.930Z,4.70
2023-01-25T21:31:35.326Z,4.60
2023-01-25T21:34:02.997Z,4.60
2023-01-25T21:36:30.349Z,4.60
2023-01-25T21:38:58.123Z,4.60
2023-01-25T21:41:28.995Z,4.70
2023-01-25T21:44:16.302Z,4.70
2023-01-25T21:46:51.388Z,4.70
2023-01-25T21:49:45.954Z,4.70
2023-01-25T21:52:12.667Z,4.80
2023-01-25T21:54:39.510Z,4.80
2023-01-25T21:57:11.595Z,4.80
2023-01-25T21:59:40.671Z,4.80
2023-01-25T22:02:10.282Z,4.80
2023-01-25T22:04:38.063Z,4.80
2023-01-25T22:07:06.359Z,4.90
2023-01-25T22:09:33.219Z,4.90
2023-01-25T22:12:01.844Z,4.80
2023-01-25T22:14:29.275Z,4.80
2023-01-25T22:16:56.332Z,4.90
2023-01-25T22:19:23.251Z,4.90
2023-01-25T22:21:50.245Z,4.90
2023-01-25T22:24:17.238Z,4.90
2023-01-25T22:27:06.420Z,4.90
2023-01-25T22:29:34.052Z,4.80
2023-01-25T22:32:02.101Z,4.70
2023-01-25T22:34:28.973Z,4.80
2023-01-25T22:36:55.766Z,4.70
2023-01-25T22:39:22.424Z,4.70
2023-01-25T22:41:49.322Z,4.70
2023-01-25T22:44:16.607Z,4.70
2023-01-25T22:46:43.373Z,4.70
2023-01-25T22:49:10.209Z,4.70
2023-01-25T22:51:37.071Z,4.70
2023-01-25T22:54:03.965Z,4.70
2023-01-25T22:56:32.932Z,4.70
2023-01-25T22:59:00.757Z,4.70
2023-01-25T23:01:33.319Z,4.70
2023-01-25T23:04:00.819Z,4.70
2023-01-25T23:06:34.129Z,4.60
2023-01-25T23:09:04.096Z,4.70
2023-01-25T23:11:35.595Z,4.60
2023-01-25T23:14:36.374Z,4.60
2023-01-25T23:17:21.538Z,4.60
2023-01-25T23:19:48.365Z,4.60
2023-01-25T23:22:15.151Z,4.60
2023-01-25T23:24:43.305Z,4.60
2023-01-25T23:27:10.105Z,4.50
2023-01-25T23:29:37.265Z,4.60
2023-01-25T23:32:04.023Z,4.50
2023-01-25T23:34:34.769Z,4.50
2023-01-25T23:37:01.465Z,4.50
2023-01-25T23:39:28.247Z,4.50
2023-01-25T23:41:55.182Z,4.50
2023-01-25T23:44:21.950Z,4.40
2023-01-25T23:46:49.116Z,4.40
2023-01-25T23:49:16.194Z,4.40
2023-01-25T23:51:42.941Z,4.40
2023-01-25T23:54:09.753Z,4.40
2023-01-25T23:56:36.520Z,4.40
2023-01-25T23:59:03.183Z,4.40
